Impacts TAF Board INFO
FOR SITUATIONAL AWARENESS. NOT TO BE USED FOR FLIGHT PLANNING PURPOSES.
IDs:

KSLC - Salt Lake City Intl, UT, US

Issued at 2049 UTC 19 Jun 2018
Updated at 2158 UTC 19 Jun 2018
Potential Impact None Slight Moderate High
Time2154Z 19/22Z 19/23Z 20/00Z 20/01Z 20/02Z 20/03Z 20/04Z 20/05Z 20/06Z 20/07Z 20/08Z 20/09Z 20/10Z>>
Type OBS PRVL PRVL PRVL PRVL PRVL PRVL PRVL PRVL PRVL PRVL PRVL PRVL PRVL
VIS 10 >6 >6 >6 >6 >6 >6 >6 >6 >6 >6 >6 >6 >6
CIG -- -- -- -- -- -- -- -- -- -- -- -- -- --
Cover SCT SCT SCT SCT SCT FEW FEW FEW FEW FEW FEW FEW FEW FEW
FltCat VFR VFR VFR VFR VFR VFR VFR VFR VFR VFR VFR VFR VFR VFR
WX -- -- -- -- -- -- -- -- -- -- -- -- -- --
WDir 340 340 340 340 340 340 340 340 160 160 160 160 160 160
WSpd 10 10 10 10 10 7 7 7 5 5 5 5 5 5
WGst 17 17 17 17 17 -- -- -- -- -- -- -- -- --

Raw TAF
KSLC 192049Z 1921/2024 34010G17KT P6SM FEW070 SCT120 SCT200
  FM200200 34007KT P6SM FEW080 FEW120
  FM200500 16005KT P6SM FEW080
  FM201700 33006KT P6SM FEW120


Raw METAR
KSLC 192154Z 34010G17KT 10SM FEW085 SCT130 25/04 A3011 RMK AO2 SLP150 TCU DSNT NE T02500039
KSLC 192054Z 34013KT 10SM FEW070 SCT120 25/05 A3011 RMK AO2 SLP153 TCU DSNT NE AND SE ACSL DSNT NW-NE T02500050 56002
KSLC 191954Z 01010G16KT 10SM FEW065 SCT110 SCT220 23/06 A3012 RMK AO2 SLP154 VIRGA DSNT NW-N TCU DSNT NW-NE ACSL DSNT NW T02330056
KSLC 191854Z 32011G17KT 10SM FEW065 SCT110 BKN220 23/05 A3012 RMK AO2 SLP155 ACSL DSNT NE AND NW T02330050

METAR Board
Radar Display
Forecast Discussion

FOR SITUATIONAL AWARENESS. NOT TO BE USED FOR FLIGHT PLANNING PURPOSES.